Time;durP1;ratioP1;P1;durP2;ratioP2;P2;SDS_P1;SDS_P2;PMS_P1;PMS_P2;Temp;Humidity;BMP_temperature;BMP_pressure;BME280_temperature;BME280_humidity;BME280_pressure;Samples;Min_cycle;Max_cycle;Signal;HPM_P1;HPM_P2
2022/10/11 00:00:44;;;;;;;11.07;5.15;;;19.80;86.90;;;;;;5033011;28;20025;-72
2022/10/11 00:03:10;;;;;;;9.85;5.00;;;19.80;87.20;;;;;;5033166;28;20099;-71
2022/10/11 00:05:36;;;;;;;10.27;5.43;;;19.70;87.50;;;;;;5032941;28;20017;-71
2022/10/11 00:08:04;;;;;;;9.93;5.10;;;19.70;87.90;;;;;;5033184;28;20025;-71
2022/10/11 00:10:31;;;;;;;13.45;5.72;;;19.60;88.60;;;;;;5033016;28;20506;-71
2022/10/11 00:12:57;;;;;;;14.68;5.60;;;19.60;88.80;;;;;;5032878;28;20041;-71
2022/10/11 00:15:23;;;;;;;9.40;5.53;;;19.60;89.20;;;;;;5032480;28;20061;-70
2022/10/11 00:17:49;;;;;;;12.27;7.00;;;19.60;89.30;;;;;;5033072;28;20027;-72
2022/10/11 00:20:15;;;;;;;11.32;7.15;;;19.60;89.50;;;;;;5033036;28;20116;-74
2022/10/11 00:22:41;;;;;;;13.35;6.85;;;19.60;89.80;;;;;;5032946;28;20103;-71
2022/10/11 00:25:09;;;;;;;16.90;7.10;;;19.50;90.00;;;;;;5033026;28;20026;-72
2022/10/11 00:27:35;;;;;;;11.48;6.18;;;19.50;90.10;;;;;;5033053;28;20101;-74
2022/10/11 00:30:02;;;;;;;14.13;7.00;;;19.40;90.20;;;;;;5033244;28;20164;-72
2022/10/11 00:32:27;;;;;;;15.85;7.68;;;19.40;90.30;;;;;;5015388;28;20448;-72
2022/10/11 00:34:55;;;;;;;11.30;6.55;;;19.40;90.40;;;;;;5033239;28;20057;-70
2022/10/11 00:37:20;;;;;;;12.82;6.20;;;19.40;90.60;;;;;;5033807;28;20052;-72
2022/10/11 00:39:46;;;;;;;14.55;5.63;;;19.40;90.70;;;;;;5033743;28;20059;-71
2022/10/11 00:42:16;;;;;;;14.32;6.72;;;19.40;90.70;;;;;;5033729;28;20030;-72
2022/10/11 00:44:46;;;;;;;15.68;7.68;;;19.40;90.90;;;;;;5033841;28;20022;-71
2022/10/11 00:47:19;;;;;;;13.25;7.38;;;19.40;91.00;;;;;;5033569;28;20028;-71
2022/10/11 00:49:48;;;;;;;9.02;5.25;;;19.40;91.10;;;;;;5033282;28;20029;-74
2022/10/11 00:52:30;;;;;;;11.20;7.85;;;19.40;91.00;;;;;;5033160;28;20047;-73
2022/10/11 00:55:01;;;;;;;15.32;7.90;;;19.40;91.70;;;;;;5033024;28;20117;-73
2022/10/11 00:57:30;;;;;;;13.80;8.43;;;19.30;91.50;;;;;;5033111;28;20046;-72
2022/10/11 00:59:57;;;;;;;12.95;7.90;;;19.30;91.70;;;;;;5033467;28;20029;-70
2022/10/11 01:02:24;;;;;;;10.98;7.88;;;19.30;91.80;;;;;;5033147;28;20124;-70
2022/10/11 01:04:50;;;;;;;13.63;7.82;;;19.30;91.90;;;;;;5032968;28;20018;-70
2022/10/11 01:07:20;;;;;;;14.10;7.90;;;19.30;92.00;;;;;;5032450;28;20034;-70
2022/10/11 01:09:45;;;;;;;11.77;8.00;;;19.20;92.10;;;;;;5032252;28;20033;-71
2022/10/11 01:12:18;;;;;;;11.60;7.70;;;19.20;92.30;;;;;;5032565;28;20037;-70
2022/10/11 01:14:50;;;;;;;13.70;9.20;;;19.20;92.30;;;;;;5032463;28;20021;-71
2022/10/11 01:17:25;;;;;;;15.52;9.18;;;19.20;92.30;;;;;;5032377;28;20036;-70
2022/10/11 01:20:29;;;;;;;17.00;8.23;;;19.20;92.40;;;;;;5032386;28;20486;-67
2022/10/11 01:23:10;;;;;;;;;;;19.20;92.60;;;;;;5032668;28;20506;-71
2022/10/11 01:26:13;;;;;;;14.63;8.40;;;19.10;92.90;;;;;;5032224;28;19909;-71
2022/10/11 01:29:16;;;;;;;11.23;7.75;;;19.10;92.60;;;;;;5035370;28;20026;-70
2022/10/11 01:31:51;;;;;;;10.95;8.18;;;19.10;92.70;;;;;;5035968;28;20456;-69
2022/10/11 01:34:42;;;;;;;10.75;7.85;;;19.10;92.70;;;;;;5035658;28;20044;-74
2022/10/11 01:37:12;;;;;;;13.07;8.10;;;19.10;92.60;;;;;;5035567;28;20374;-72
2022/10/11 01:40:21;;;;;;;15.65;8.10;;;18.90;92.50;;;;;;5035728;28;20106;-71
2022/10/11 01:42:48;;;;;;;15.38;7.57;;;18.90;92.90;;;;;;5035747;28;20025;-72
2022/10/11 01:45:17;;;;;;;11.68;7.10;;;18.80;92.70;;;;;;5036292;28;20075;-73
2022/10/11 01:47:44;;;;;;;12.55;7.22;;;18.80;92.90;;;;;;5036352;28;20484;-71
2022/10/11 01:50:45;;;;;;;14.02;7.50;;;18.70;92.90;;;;;;5035839;28;20025;-74
2022/10/11 01:53:44;;;;;;;12.90;7.28;;;18.70;93.10;;;;;;5035440;28;20092;-70
2022/10/11 01:56:21;;;;;;;14.52;7.88;;;18.70;93.10;;;;;;5035328;28;20035;-73
2022/10/11 01:58:54;;;;;;;13.75;7.60;;;18.70;93.00;;;;;;5035230;28;20136;-73
2022/10/11 02:01:58;;;;;;;19.23;8.03;;;18.70;93.00;;;;;;5035464;28;20422;-71
2022/10/11 02:04:40;;;;;;;9.00;6.60;;;18.70;93.00;;;;;;5035062;28;20037;-71
2022/10/11 02:07:17;;;;;;;13.43;7.00;;;18.60;92.90;;;;;;5034984;28;20065;-72
2022/10/11 02:10:06;;;;;;;12.65;7.00;;;18.60;92.80;;;;;;5035241;28;20025;-73
2022/10/11 02:12:43;;;;;;;12.95;6.93;;;18.70;93.00;;;;;;5035109;28;20026;-71
2022/10/11 02:15:12;;;;;;;12.48;6.55;;;18.70;93.00;;;;;;5034918;28;20078;-71
2022/10/11 02:17:46;;;;;;;16.35;7.53;;;18.70;92.80;;;;;;5035283;28;20540;-74
2022/10/11 02:20:18;;;;;;;14.48;6.95;;;18.60;92.80;;;;;;5035553;28;20143;-71
2022/10/11 02:22:47;;;;;;;13.45;6.68;;;18.70;92.90;;;;;;5035394;28;20456;-71
2022/10/11 02:25:19;;;;;;;10.20;6.53;;;18.60;92.80;;;;;;5035089;28;20029;-72
2022/10/11 02:27:47;;;;;;;10.07;6.43;;;18.60;92.90;;;;;;5034918;28;20049;-70
2022/10/11 02:30:14;;;;;;;11.75;6.65;;;18.50;92.90;;;;;;5034905;28;20028;-72
2022/10/11 02:32:42;;;;;;;9.68;6.75;;;18.50;93.00;;;;;;5034507;28;20051;-70
2022/10/11 02:35:10;;;;;;;10.48;6.25;;;18.50;93.00;;;;;;5034327;28;20064;-69
2022/10/11 02:37:52;;;;;;;11.65;6.80;;;18.40;93.10;;;;;;5034233;28;20025;-70
2022/10/11 02:40:28;;;;;;;12.27;6.82;;;18.40;93.20;;;;;;5034419;28;20028;-69
2022/10/11 02:43:00;;;;;;;9.35;6.47;;;18.40;93.20;;;;;;5034351;28;20021;-71
2022/10/11 02:45:42;;;;;;;11.70;6.72;;;18.40;93.30;;;;;;5034247;28;20101;-68
2022/10/11 02:48:10;;;;;;;14.20;7.30;;;18.40;93.30;;;;;;5034595;28;20033;-70
2022/10/11 02:50:38;;;;;;;10.32;6.30;;;18.40;93.70;;;;;;5034386;28;20107;-70
2022/10/11 02:53:04;;;;;;;12.80;6.80;;;18.40;93.40;;;;;;5034199;28;20036;-70
2022/10/11 02:55:31;;;;;;;13.98;6.95;;;18.50;93.40;;;;;;5034057;28;20048;-68
2022/10/11 02:57:56;;;;;;;14.43;7.47;;;18.50;93.40;;;;;;5033797;28;20045;-69
2022/10/11 03:00:22;;;;;;;10.20;6.82;;;18.40;93.40;;;;;;5033890;28;20323;-67
2022/10/11 03:02:48;;;;;;;9.52;6.65;;;18.40;93.50;;;;;;5033808;28;20590;-68
2022/10/11 03:05:14;;;;;;;12.75;6.88;;;18.40;93.60;;;;;;5033855;28;20489;-69
2022/10/11 03:07:39;;;;;;;14.80;7.13;;;18.40;93.60;;;;;;5034020;28;20036;-69
2022/10/11 03:10:06;;;;;;;11.68;6.68;;;18.40;93.80;;;;;;5033919;28;20049;-69
2022/10/11 03:12:32;;;;;;;10.75;6.90;;;18.40;93.80;;;;;;5033598;28;20092;-68
2022/10/11 03:14:57;;;;;;;12.68;6.55;;;18.30;93.80;;;;;;5034036;28;20021;-67
2022/10/11 03:17:23;;;;;;;13.10;6.50;;;18.40;93.90;;;;;;5033938;28;20439;-70
2022/10/11 03:19:49;;;;;;;12.55;6.50;;;18.40;93.80;;;;;;5033656;28;20129;-71
2022/10/11 03:22:16;;;;;;;12.13;7.38;;;18.40;93.90;;;;;;5033721;28;20030;-69
2022/10/11 03:24:42;;;;;;;9.02;6.15;;;18.40;93.80;;;;;;5034037;28;20060;-68
2022/10/11 03:27:07;;;;;;;10.82;6.72;;;18.40;93.90;;;;;;5033577;28;20041;-69
2022/10/11 03:29:33;;;;;;;14.02;6.53;;;18.40;93.90;;;;;;5033917;28;20068;-68
2022/10/11 03:31:59;;;;;;;11.90;6.03;;;18.40;93.90;;;;;;5033823;28;20057;-70
2022/10/11 03:34:25;;;;;;;9.75;6.78;;;18.40;93.90;;;;;;5033787;28;20028;-69
2022/10/11 03:36:50;;;;;;;12.07;6.50;;;18.40;93.90;;;;;;5033462;28;20052;-70
2022/10/11 03:39:16;;;;;;;10.50;6.50;;;18.40;94.00;;;;;;5033420;28;20064;-68
2022/10/11 03:41:42;;;;;;;11.25;6.57;;;18.40;94.00;;;;;;5033485;28;20383;-68
2022/10/11 03:44:08;;;;;;;11.43;6.55;;;18.30;94.10;;;;;;5033812;28;20080;-70
2022/10/11 03:46:33;;;;;;;11.05;6.60;;;18.30;94.00;;;;;;5033307;28;20597;-70
2022/10/11 03:48:59;;;;;;;15.10;6.68;;;18.40;94.10;;;;;;5033286;28;20026;-68
2022/10/11 03:51:25;;;;;;;13.18;6.50;;;18.40;94.20;;;;;;5032599;28;20510;-69
2022/10/11 03:53:50;;;;;;;11.63;6.53;;;18.40;94.10;;;;;;5033235;28;20116;-70
2022/10/11 03:56:16;;;;;;;11.35;5.90;;;18.40;94.00;;;;;;5032969;28;20033;-70
2022/10/11 03:58:42;;;;;;;11.02;6.70;;;18.30;94.00;;;;;;5011979;28;20499;-68
2022/10/11 04:01:08;;;;;;;11.18;5.95;;;18.30;94.00;;;;;;5013397;28;20026;-68
2022/10/11 04:03:34;;;;;;;11.45;6.38;;;18.30;94.20;;;;;;5013743;28;20100;-70
2022/10/11 04:05:59;;;;;;;9.30;5.38;;;18.30;94.20;;;;;;5013076;28;20076;-70
2022/10/11 04:08:25;;;;;;;9.73;6.35;;;18.30;94.20;;;;;;5013274;28;20084;-71
2022/10/11 04:10:51;;;;;;;13.00;6.30;;;18.30;94.20;;;;;;5013307;28;20030;-70
2022/10/11 04:13:17;;;;;;;9.05;6.13;;;18.30;94.10;;;;;;5012921;28;20118;-69
2022/10/11 04:15:42;;;;;;;11.30;7.80;;;18.30;94.10;;;;;;5013150;28;20472;-70
2022/10/11 04:18:09;;;;;;;13.32;7.10;;;18.30;94.20;;;;;;5013293;28;20037;-72
2022/10/11 04:20:34;;;;;;;10.98;6.45;;;18.30;94.10;;;;;;5013018;28;20092;-71
2022/10/11 04:23:01;;;;;;;12.63;7.32;;;18.30;94.00;;;;;;5013316;28;20025;-71
2022/10/11 04:25:26;;;;;;;14.75;7.32;;;18.30;94.10;;;;;;5013128;28;20029;-71
2022/10/11 04:27:52;;;;;;;14.20;6.78;;;18.30;94.10;;;;;;5013147;28;20392;-70
2022/10/11 04:30:18;;;;;;;11.23;6.47;;;18.30;94.00;;;;;;5013109;28;20034;-69
2022/10/11 04:32:44;;;;;;;10.32;6.60;;;18.30;94.10;;;;;;5012957;28;20041;-69
2022/10/11 04:35:10;;;;;;;11.55;6.53;;;18.20;94.10;;;;;;5013273;28;20357;-71
2022/10/11 04:37:36;;;;;;;14.05;6.82;;;18.20;94.20;;;;;;5013229;28;20034;-69
2022/10/11 04:40:03;;;;;;;13.75;6.60;;;18.10;94.20;;;;;;5012967;28;20084;-68
2022/10/11 04:42:29;;;;;;;12.10;7.00;;;18.10;94.30;;;;;;5013093;28;20077;-70
2022/10/11 04:44:55;;;;;;;10.55;7.53;;;18.10;94.30;;;;;;5011586;28;20022;-69
2022/10/11 04:47:20;;;;;;;11.65;7.15;;;18.10;94.40;;;;;;5013173;28;20034;-71
2022/10/11 04:49:46;;;;;;;11.82;6.70;;;18.10;94.40;;;;;;5013947;28;20030;-69
2022/10/11 04:52:12;;;;;;;14.65;8.18;;;18.10;94.40;;;;;;5013763;28;20037;-71
2022/10/11 04:54:37;;;;;;;14.00;7.05;;;18.20;94.40;;;;;;5013544;28;20018;-71
2022/10/11 04:57:03;;;;;;;10.88;7.32;;;18.10;94.40;;;;;;5015767;28;20026;-70
2022/10/11 04:59:29;;;;;;;16.95;7.00;;;18.10;94.80;;;;;;5034111;28;20033;-70
2022/10/11 05:01:54;;;;;;;11.73;8.07;;;18.20;94.40;;;;;;5017764;28;20041;-71
2022/10/11 05:04:20;;;;;;;12.73;6.82;;;18.20;94.60;;;;;;5036593;28;20474;-73
2022/10/11 05:06:46;;;;;;;14.80;6.90;;;18.20;94.50;;;;;;5036260;28;20032;-69
2022/10/11 05:09:12;;;;;;;16.92;7.13;;;18.20;94.50;;;;;;5036200;28;20394;-70
2022/10/11 05:11:37;;;;;;;12.93;7.25;;;18.20;94.50;;;;;;5036277;28;20555;-72
2022/10/11 05:14:03;;;;;;;12.45;7.50;;;18.20;94.50;;;;;;5035929;28;20104;-72
2022/10/11 05:16:30;;;;;;;14.82;8.15;;;18.10;94.40;;;;;;5035888;28;20022;-71
2022/10/11 05:18:55;;;;;;;15.35;7.82;;;18.20;94.50;;;;;;5036146;28;20356;-74
2022/10/11 05:21:27;;;;;;;11.85;7.70;;;18.10;94.60;;;;;;5036363;28;20018;-73
2022/10/11 05:23:57;;;;;;;10.80;7.32;;;18.00;94.60;;;;;;5035833;28;20433;-71
2022/10/11 05:26:25;;;;;;;12.32;8.07;;;17.90;94.60;;;;;;5035554;28;20092;-70
2022/10/11 05:28:51;;;;;;;12.80;7.93;;;17.90;94.80;;;;;;5036259;28;20360;-72
2022/10/11 05:31:17;;;;;;;14.80;8.43;;;17.90;95.00;;;;;;5035780;28;20056;-72
2022/10/11 05:33:43;;;;;;;23.77;8.68;;;17.80;95.10;;;;;;5035690;28;20057;-73
2022/10/11 05:36:09;;;;;;;14.48;8.82;;;17.90;95.20;;;;;;5035687;28;20498;-72
2022/10/11 05:38:37;;;;;;;17.42;8.10;;;17.90;95.10;;;;;;5035575;28;20022;-74
2022/10/11 05:41:03;;;;;;;14.85;7.97;;;17.90;95.30;;;;;;5035778;28;20017;-74
2022/10/11 05:43:30;;;;;;;13.18;9.20;;;17.90;95.30;;;;;;5035430;28;20075;-75
2022/10/11 05:45:55;;;;;;;12.85;8.82;;;17.90;95.40;;;;;;5035692;28;20252;-74
2022/10/11 05:48:22;;;;;;;13.68;8.73;;;17.90;95.40;;;;;;5018067;28;20021;-73
2022/10/11 05:50:49;;;;;;;13.52;8.52;;;17.90;95.40;;;;;;5035272;28;20030;-72
2022/10/11 05:53:14;;;;;;;14.80;8.50;;;17.90;95.40;;;;;;5035202;28;20076;-73
2022/10/11 05:55:42;;;;;;;16.33;9.68;;;17.90;95.40;;;;;;5035035;28;20065;-74
2022/10/11 05:58:11;;;;;;;14.93;8.93;;;18.00;95.50;;;;;;5034929;28;20171;-73
2022/10/11 06:00:37;;;;;;;12.98;8.65;;;18.00;95.50;;;;;;5035255;28;20025;-70
2022/10/11 06:03:09;;;;;;;12.90;9.82;;;18.10;95.50;;;;;;5035298;28;20440;-69
2022/10/11 06:05:35;;;;;;;18.13;9.75;;;18.10;95.30;;;;;;5034894;28;20467;-69
2022/10/11 06:08:01;;;;;;;14.90;9.27;;;18.10;95.40;;;;;;5034847;28;20044;-70
2022/10/11 06:10:27;;;;;;;14.02;9.13;;;18.20;95.30;;;;;;5034972;28;20029;-70
2022/10/11 06:12:52;;;;;;;12.68;9.70;;;18.20;95.30;;;;;;5034300;28;20433;-73
2022/10/11 06:15:18;;;;;;;14.82;9.88;;;18.30;95.20;;;;;;5035007;28;20030;-72
2022/10/11 06:17:45;;;;;;;16.95;10.30;;;18.40;95.10;;;;;;5035056;28;20025;-70
2022/10/11 06:20:11;;;;;;;15.07;10.35;;;18.50;95.10;;;;;;5034792;28;20079;-68
2022/10/11 06:22:37;;;;;;;16.20;10.45;;;18.60;94.80;;;;;;5034604;28;20026;-71
2022/10/11 06:25:04;;;;;;;17.60;11.18;;;18.70;94.80;;;;;;5034623;28;20025;-70
2022/10/11 06:27:29;;;;;;;15.65;10.35;;;18.80;94.70;;;;;;5034545;28;20021;-69
2022/10/11 06:29:55;;;;;;;15.52;10.85;;;18.80;94.60;;;;;;5034740;28;20025;-70
2022/10/11 06:32:21;;;;;;;16.85;10.95;;;18.90;94.60;;;;;;5034670;28;20060;-70
2022/10/11 06:34:47;;;;;;;17.23;11.38;;;19.10;94.40;;;;;;5034446;28;20072;-69
2022/10/11 06:37:12;;;;;;;13.82;10.25;;;19.20;94.20;;;;;;5034489;28;20037;-70
2022/10/11 06:39:38;;;;;;;21.92;11.43;;;19.30;94.00;;;;;;5034454;28;20488;-70
2022/10/11 06:42:04;;;;;;;19.48;11.48;;;19.40;93.90;;;;;;5034201;28;20542;-72
2022/10/11 06:44:30;;;;;;;14.57;11.32;;;19.40;93.80;;;;;;5034236;28;20375;-73
2022/10/11 06:46:55;;;;;;;18.38;11.23;;;19.50;93.60;;;;;;5033795;28;20026;-68
2022/10/11 06:49:21;;;;;;;16.00;11.25;;;19.70;93.50;;;;;;5034480;28;20026;-73
2022/10/11 06:51:47;;;;;;;13.80;10.98;;;19.80;93.40;;;;;;5034415;28;20029;-72
2022/10/11 06:54:12;;;;;;;18.48;10.65;;;19.80;93.20;;;;;;5034175;28;20032;-69
2022/10/11 06:56:39;;;;;;;21.08;11.65;;;19.90;93.00;;;;;;5034171;28;20040;-72
2022/10/11 06:59:05;;;;;;;17.80;11.57;;;20.00;93.00;;;;;;5033769;28;20399;-71
2022/10/11 07:01:31;;;;;;;18.52;12.00;;;20.10;92.70;;;;;;5033919;28;20026;-72
2022/10/11 07:03:58;;;;;;;15.68;11.27;;;20.20;92.70;;;;;;5033759;28;20029;-71
2022/10/11 07:06:26;;;;;;;17.25;10.88;;;20.30;92.60;;;;;;5033517;28;20021;-73
2022/10/11 07:08:53;;;;;;;20.60;11.05;;;20.30;92.40;;;;;;5033709;28;20025;-72
2022/10/11 07:11:25;;;;;;;19.40;12.00;;;20.30;92.30;;;;;;5033624;28;20074;-71
2022/10/11 07:13:53;;;;;;;17.42;10.93;;;20.30;92.30;;;;;;5033412;28;20048;-71
2022/10/11 07:16:19;;;;;;;21.52;11.65;;;20.40;92.10;;;;;;5033535;28;20071;-71
2022/10/11 07:18:46;;;;;;;15.73;10.90;;;20.50;92.10;;;;;;5015631;28;20033;-73
2022/10/11 07:21:14;;;;;;;21.30;10.77;;;20.50;91.80;;;;;;5033694;28;20026;-71
2022/10/11 07:23:41;;;;;;;13.20;10.15;;;20.70;91.80;;;;;;5033081;28;20026;-73
2022/10/11 07:26:08;;;;;;;18.80;10.73;;;20.70;91.90;;;;;;5032407;28;20026;-74
2022/10/11 07:28:35;;;;;;;17.85;9.77;;;20.80;91.20;;;;;;5033237;28;20079;-73
2022/10/11 07:31:09;;;;;;;18.00;11.57;;;20.70;91.00;;;;;;5033229;28;20029;-73
2022/10/11 07:33:34;;;;;;;;;;;20.70;91.10;;;;;;5015666;28;20068;-72
2022/10/11 07:36:00;;;;;;;16.65;10.48;;;20.70;91.20;;;;;;5033002;28;20011;-75
2022/10/11 07:38:26;;;;;;;17.10;10.77;;;20.70;91.20;;;;;;5033229;28;20152;-72
2022/10/11 07:40:52;;;;;;;15.95;10.23;;;20.70;90.90;;;;;;5033403;28;20056;-73
2022/10/11 07:43:18;;;;;;;17.20;10.27;;;20.80;90.80;;;;;;5032728;28;20087;-73
2022/10/11 07:45:46;;;;;;;14.45;10.15;;;20.70;90.80;;;;;;5032615;28;20025;-71
2022/10/11 07:48:12;;;;;;;15.65;9.73;;;20.80;90.80;;;;;;5032320;28;20509;-72
2022/10/11 07:50:38;;;;;;;14.75;10.18;;;20.70;90.80;;;;;;5032664;28;20025;-73
2022/10/11 07:53:04;;;;;;;13.63;9.77;;;20.70;90.70;;;;;;5032571;28;20479;-73
2022/10/11 07:55:34;;;;;;;18.35;10.52;;;20.70;90.70;;;;;;5032583;28;20094;-73
2022/10/11 07:58:00;;;;;;;16.05;8.93;;;20.70;90.50;;;;;;5032358;28;20060;-73
2022/10/11 08:00:25;;;;;;;14.25;10.00;;;20.70;90.70;;;;;;5032591;28;20033;-73
2022/10/11 08:02:51;;;;;;;14.52;10.65;;;20.70;90.70;;;;;;5032609;28;20029;-73
2022/10/11 08:05:17;;;;;;;21.40;10.05;;;20.60;90.60;;;;;;5032965;28;20029;-72
2022/10/11 08:07:43;;;;;;;15.48;10.25;;;20.60;90.60;;;;;;5032504;28;20026;-72
2022/10/11 08:10:09;;;;;;;14.25;10.07;;;20.60;90.60;;;;;;5032715;28;20474;-73
2022/10/11 08:12:34;;;;;;;20.08;11.05;;;20.70;90.60;;;;;;5015156;28;20037;-73
2022/10/11 08:15:01;;;;;;;16.95;10.55;;;20.70;90.60;;;;;;5032460;28;20013;-73
2022/10/11 08:17:27;;;;;;;20.90;9.98;;;20.70;90.50;;;;;;5032130;28;20085;-71
2022/10/11 08:19:52;;;;;;;16.60;10.30;;;20.70;90.50;;;;;;5032359;28;20493;-72
2022/10/11 08:22:18;;;;;;;17.15;9.90;;;20.80;90.50;;;;;;5032416;28;20021;-72
2022/10/11 08:24:44;;;;;;;15.88;9.20;;;20.80;90.40;;;;;;5032425;28;20545;-72
2022/10/11 08:27:09;;;;;;;13.38;8.88;;;20.80;90.30;;;;;;5031873;28;20022;-70
2022/10/11 08:29:35;;;;;;;22.58;9.40;;;20.90;90.30;;;;;;5032351;28;20026;-73
2022/10/11 08:32:01;;;;;;;17.33;8.70;;;20.90;90.50;;;;;;5032293;28;20033;-73
2022/10/11 08:34:26;;;;;;;13.13;8.82;;;20.90;90.10;;;;;;5032021;28;20108;-72
2022/10/11 08:36:52;;;;;;;15.20;8.07;;;21.00;90.00;;;;;;5033541;28;20025;-71
2022/10/11 08:39:18;;;;;;;19.15;9.95;;;21.00;89.90;;;;;;5036220;28;20099;-73
2022/10/11 08:41:52;;;;;;;19.40;9.77;;;21.00;90.00;;;;;;5036260;28;20105;-71
2022/10/11 08:44:30;;;;;;;12.95;8.30;;;21.00;89.70;;;;;;5036187;28;20028;-73
2022/10/11 08:47:09;;;;;;;13.85;8.90;;;21.10;89.40;;;;;;5035718;28;20387;-71
2022/10/11 08:49:36;;;;;;;14.27;9.23;;;21.10;90.00;;;;;;5036380;28;20359;-71
2022/10/11 08:52:24;;;;;;;17.40;9.07;;;21.10;89.40;;;;;;5035790;28;20117;-72
2022/10/11 08:55:01;;;;;;;13.40;8.18;;;21.20;89.60;;;;;;5033250;28;20391;-71
2022/10/11 08:57:30;;;;;;;14.60;8.50;;;21.20;89.20;;;;;;5035749;28;20124;-72
2022/10/11 09:00:04;;;;;;;13.63;8.57;;;21.30;88.90;;;;;;5035783;28;20026;-72
2022/10/11 09:02:42;;;;;;;13.82;8.40;;;21.40;89.00;;;;;;5035582;28;20044;-70
2022/10/11 09:05:14;;;;;;;15.20;7.18;;;21.40;89.30;;;;;;5035790;28;20033;-72
2022/10/11 09:07:52;;;;;;;14.13;7.00;;;21.50;88.20;;;;;;5035965;28;20445;-73
2022/10/11 09:10:36;;;;;;;10.40;6.20;;;21.50;88.30;;;;;;5035883;28;20482;-72
2022/10/11 09:13:19;;;;;;;9.80;7.15;;;21.60;88.10;;;;;;5035319;28;20401;-69
2022/10/11 09:15:55;;;;;;;13.60;7.18;;;21.60;86.90;;;;;;5035720;28;20361;-71
2022/10/11 09:18:36;;;;;;;12.30;6.65;;;21.70;87.20;;;;;;5035684;28;20025;-73
2022/10/11 09:21:19;;;;;;;9.55;6.05;;;21.70;86.90;;;;;;5035531;28;20032;-73
2022/10/11 09:24:10;;;;;;;12.48;6.97;;;21.80;85.30;;;;;;5035273;28;20075;-72
2022/10/11 09:26:53;;;;;;;14.13;6.28;;;21.90;86.20;;;;;;5035495;28;20040;-72
2022/10/11 09:29:44;;;;;;;12.80;6.70;;;22.00;85.30;;;;;;5035504;28;20025;-72
2022/10/11 09:32:16;;;;;;;21.65;6.78;;;22.10;85.90;;;;;;5035560;28;20113;-71
2022/10/11 09:34:42;;;;;;;18.77;6.53;;;22.20;84.60;;;;;;5035294;28;20018;-72
2022/10/11 09:37:23;;;;;;;11.32;5.90;;;22.30;84.40;;;;;;5035249;28;20029;-72
2022/10/11 09:40:04;;;;;;;18.45;6.75;;;22.30;83.60;;;;;;5035280;28;20494;-74
2022/10/11 09:42:30;;;;;;;14.85;6.40;;;22.40;84.20;;;;;;5035426;28;20364;-72
2022/10/11 09:44:56;;;;;;;11.18;4.85;;;22.60;83.20;;;;;;5035027;28;20112;-73
2022/10/11 09:47:30;;;;;;;12.82;5.60;;;22.60;82.30;;;;;;5034791;28;20075;-69
2022/10/11 09:50:05;;;;;;;14.93;6.22;;;22.70;81.50;;;;;;5035357;28;20391;-70
2022/10/11 09:52:31;;;;;;;8.10;4.90;;;22.80;82.00;;;;;;5017185;28;20553;-73
2022/10/11 09:54:59;;;;;;;9.60;5.05;;;22.80;80.70;;;;;;5035029;28;20025;-73
2022/10/11 09:57:28;;;;;;;13.98;5.47;;;22.90;80.20;;;;;;5034722;28;20049;-71
2022/10/11 10:00:06;;;;;;;9.25;5.20;;;22.90;79.90;;;;;;5035037;28;20447;-73
2022/10/11 10:02:43;;;;;;;10.10;5.72;;;23.00;80.80;;;;;;5035006;28;20135;-70
2022/10/11 10:05:09;;;;;;;15.40;7.03;;;23.10;80.80;;;;;;5034610;28;20034;-71
2022/10/11 10:07:39;;;;;;;8.18;5.03;;;23.20;79.20;;;;;;5034895;28;20048;-71
2022/10/11 10:10:47;;;;;;;10.73;4.88;;;23.30;78.50;;;;;;5034815;28;20422;-69
2022/10/11 10:13:21;;;;;;;11.30;5.20;;;23.30;78.90;;;;;;5032780;28;20497;-71
2022/10/11 10:15:49;;;;;;;13.82;5.10;;;23.40;78.00;;;;;;5034720;28;20103;-70
2022/10/11 10:18:42;;;;;;;11.38;5.22;;;23.50;77.70;;;;;;5034561;28;20067;-71
2022/10/11 10:21:13;;;;;;;13.55;5.30;;;23.60;77.20;;;;;;5006385;28;20036;-72
2022/10/11 10:23:39;;;;;;;10.02;4.95;;;23.60;77.10;;;;;;5034593;28;20026;-70
2022/10/11 10:26:18;;;;;;;9.75;4.43;;;23.70;75.60;;;;;;5034515;28;20482;-69
2022/10/11 10:29:10;;;;;;;9.73;4.55;;;23.70;75.50;;;;;;5034565;28;20017;-71
2022/10/11 10:31:49;;;;;;;9.93;4.80;;;23.80;75.00;;;;;;5029832;28;20041;-73
2022/10/11 10:34:24;;;;;;;8.80;4.65;;;23.80;74.40;;;;;;5034398;28;20031;-73
2022/10/11 10:36:59;;;;;;;8.18;5.15;;;23.90;74.30;;;;;;5034494;28;20028;-72
2022/10/11 10:39:36;;;;;;;10.75;5.60;;;23.90;73.70;;;;;;5034742;28;20104;-70
2022/10/11 10:42:04;;;;;;;14.68;5.05;;;23.90;73.80;;;;;;5034839;28;20195;-71
2022/10/11 10:44:30;;;;;;;8.52;5.25;;;24.00;73.70;;;;;;5034577;28;20077;-75
2022/10/11 10:47:02;;;;;;;10.82;5.18;;;24.10;73.20;;;;;;5016374;28;20025;-73
2022/10/11 10:49:41;;;;;;;10.57;5.70;;;24.20;72.70;;;;;;5034208;28;20049;-71
2022/10/11 10:52:35;;;;;;;9.45;4.60;;;24.40;73.10;;;;;;5033953;28;20129;-73
2022/10/11 10:55:24;;;;;;;9.13;4.82;;;24.40;72.00;;;;;;5033363;28;20100;-71
2022/10/11 10:58:09;;;;;;;10.65;5.07;;;24.50;71.90;;;;;;5033978;28;20651;-71
2022/10/11 11:00:49;;;;;;;10.55;4.53;;;24.70;71.30;;;;;;5033521;28;20034;-73
2022/10/11 11:03:26;;;;;;;8.27;4.50;;;24.70;71.30;;;;;;5033594;28;20083;-76
2022/10/11 11:06:16;;;;;;;11.85;5.40;;;24.80;70.20;;;;;;5033213;28;20022;-71
2022/10/11 11:09:16;;;;;;;8.73;4.82;;;25.00;70.70;;;;;;5033544;28;20026;-70
2022/10/11 11:11:58;;;;;;;7.38;4.50;;;25.00;69.90;;;;;;4983058;28;20051;-71
2022/10/11 11:14:24;;;;;;;9.38;4.78;;;25.00;68.80;;;;;;5033507;28;20091;-72
2022/10/11 11:17:34;;;;;;;9.70;4.47;;;25.00;68.80;;;;;;5033347;28;20065;-73
2022/10/11 11:20:40;;;;;;;7.65;4.43;;;25.00;68.20;;;;;;5033537;28;20050;-71
2022/10/11 11:23:11;;;;;;;;;;;25.10;67.70;;;;;;5034112;28;20033;-72
2022/10/11 11:26:03;;;;;;;9.00;4.18;;;25.10;66.30;;;;;;5033292;28;19905;-71
2022/10/11 11:28:45;;;;;;;9.32;4.18;;;25.10;68.10;;;;;;5033470;28;20026;-73
2022/10/11 11:31:35;;;;;;;12.25;4.55;;;25.30;68.30;;;;;;5033529;28;20387;-72
2022/10/11 11:34:25;;;;;;;9.30;4.70;;;25.40;67.00;;;;;;5015813;28;20053;-74
2022/10/11 11:37:02;;;;;;;8.95;4.63;;;25.60;67.40;;;;;;5033309;28;20026;-73
2022/10/11 11:39:46;;;;;;;11.48;5.00;;;25.70;66.20;;;;;;5015395;28;20025;-74
2022/10/11 11:42:20;;;;;;;;;;;25.80;66.00;;;;;;5016168;28;20026;-70
2022/10/11 11:44:48;;;;;;;8.63;4.75;;;25.90;64.60;;;;;;5033094;28;19950;-74
2022/10/11 11:47:36;;;;;;;10.40;4.93;;;25.90;66.80;;;;;;5033014;28;20045;-73
2022/10/11 11:50:21;;;;;;;7.55;4.53;;;26.00;65.40;;;;;;5032858;28;20026;-74
2022/10/11 11:53:06;;;;;;;12.45;5.10;;;26.10;64.90;;;;;;5033026;28;20418;-75
2022/10/11 11:55:41;;;;;;;9.55;5.05;;;26.10;64.80;;;;;;5032824;28;20060;-73
2022/10/11 11:58:39;;;;;;;11.70;4.60;;;26.20;64.30;;;;;;5032616;28;20115;-72
2022/10/11 12:01:39;;;;;;;8.55;4.20;;;26.30;63.60;;;;;;5033032;28;20108;-75
2022/10/11 12:04:18;;;;;;;9.18;4.00;;;26.40;63.10;;;;;;5033060;28;20025;-73
2022/10/11 12:06:43;;;;;;;7.60;4.55;;;26.40;62.70;;;;;;5032776;28;20386;-72
2022/10/11 12:09:15;;;;;;;11.15;4.38;;;26.50;62.20;;;;;;5033013;28;20029;-72
2022/10/11 12:11:55;;;;;;;9.52;4.25;;;26.40;62.10;;;;;;5032174;28;20029;-71
2022/10/11 12:14:35;;;;;;;8.23;4.18;;;26.50;62.30;;;;;;5032804;28;20030;-74
2022/10/11 12:17:14;;;;;;;10.15;4.30;;;26.50;61.70;;;;;;5015326;28;20030;-74
2022/10/11 12:19:42;;;;;;;7.60;4.00;;;26.70;61.00;;;;;;5033461;28;20036;-71
2022/10/11 12:22:26;;;;;;;7.90;4.32;;;26.80;60.90;;;;;;5033020;28;20048;-72
2022/10/11 12:25:19;;;;;;;9.55;4.40;;;26.90;61.20;;;;;;5032812;28;20375;-69
2022/10/11 12:27:56;;;;;;;6.20;3.63;;;27.00;60.00;;;;;;4994700;28;20042;-71
2022/10/11 12:30:47;;;;;;;8.70;3.90;;;27.10;59.50;;;;;;5032487;28;20676;-72
2022/10/11 12:33:23;;;;;;;9.07;3.88;;;27.20;58.60;;;;;;5032468;28;20041;-72
2022/10/11 12:36:15;;;;;;;12.68;4.10;;;27.40;58.40;;;;;;5032409;28;20385;-75
2022/10/11 12:38:41;;;;;;;6.40;3.97;;;27.50;58.00;;;;;;5019508;28;20141;-72
2022/10/11 12:41:09;;;;;;;7.38;4.25;;;27.50;58.60;;;;;;5032973;28;20037;-72
2022/10/11 12:43:47;;;;;;;10.07;4.38;;;27.60;58.10;;;;;;5014682;28;20026;-70
2022/10/11 12:46:32;;;;;;;12.07;4.57;;;27.70;58.10;;;;;;5032686;28;20025;-70
2022/10/11 12:49:18;;;;;;;8.85;4.13;;;27.80;57.70;;;;;;5032566;28;20030;-72
2022/10/11 12:51:59;;;;;;;11.43;5.28;;;27.70;57.40;;;;;;5032474;28;20041;-72
2022/10/11 12:54:49;;;;;;;8.20;4.80;;;27.80;57.90;;;;;;5032317;28;20404;-72
2022/10/11 12:57:52;;;;;;;8.77;4.35;;;27.60;57.50;;;;;;5031912;28;20482;-70
2022/10/11 13:00:29;;;;;;;13.07;5.03;;;27.30;57.80;;;;;;5032314;28;20386;-71
2022/10/11 13:03:34;;;;;;;9.57;3.75;;;27.20;58.10;;;;;;5032278;28;20028;-70